Time;durP1;ratioP1;P1;durP2;ratioP2;P2;SDS_P1;SDS_P2;PMS_P1;PMS_P2;Temp;Humidity;BMP_temperature;BMP_pressure;BME280_temperature;BME280_humidity;BME280_pressure;Samples;Min_cycle;Max_cycle;Signal;HPM_P1;HPM_P2
2023/08/31 00:01:08;;;;;;;3.50;1.57;;;;;;;16.61;100.00;100047.66;5115988;28;20531;-70
2023/08/31 00:03:35;;;;;;;3.23;1.60;;;;;;;16.63;99.15;100048.84;5115781;28;20450;-70
2023/08/31 00:06:03;;;;;;;2.43;1.03;;;;;;;16.65;99.42;100045.78;5115951;28;20462;-70
2023/08/31 00:08:30;;;;;;;3.30;1.50;;;;;;;16.68;100.00;100049.75;5116000;27;20457;-70
2023/08/31 00:10:58;;;;;;;2.50;1.20;;;;;;;16.65;100.00;100049.31;5115681;28;20875;-70
2023/08/31 00:13:26;;;;;;;2.80;1.33;;;;;;;16.66;100.00;100055.56;5115548;28;20436;-70
2023/08/31 00:15:56;;;;;;;2.40;0.93;;;;;;;16.63;100.00;100054.31;5115331;28;20475;-69
2023/08/31 00:18:24;;;;;;;2.53;1.17;;;;;;;16.63;100.00;100064.47;5115838;27;20426;-70
2023/08/31 00:20:50;;;;;;;2.77;1.30;;;;;;;16.61;100.00;100055.84;5115732;28;20554;-70
2023/08/31 00:23:17;;;;;;;3.13;1.57;;;;;;;16.62;100.00;100062.91;5115719;28;20564;-70
2023/08/31 00:25:44;;;;;;;3.33;1.40;;;;;;;16.60;100.00;100049.59;5115556;28;20471;-70
2023/08/31 00:28:10;;;;;;;3.03;1.30;;;;;;;16.59;100.00;100045.25;5115319;28;20994;-70
2023/08/31 00:30:37;;;;;;;3.60;1.77;;;;;;;16.56;100.00;100042.44;5115581;28;20526;-70
2023/08/31 00:33:05;;;;;;;2.80;1.17;;;;;;;16.58;100.00;100045.59;5115477;28;20478;-70
2023/08/31 00:35:34;;;;;;;3.57;1.67;;;;;;;16.56;100.00;100047.91;5115388;28;20467;-70
2023/08/31 00:38:02;;;;;;;2.87;1.17;;;;;;;16.50;100.00;100046.59;5115402;28;20467;-70
2023/08/31 00:40:33;;;;;;;2.53;1.13;;;;;;;16.53;100.00;100054.09;5115330;28;20439;-70
2023/08/31 00:43:00;;;;;;;3.20;1.20;;;;;;;16.50;100.00;100057.53;5115558;28;20510;-70
2023/08/31 00:45:28;;;;;;;4.10;1.33;;;;;;;16.44;100.00;100064.41;5114870;27;21000;-70
2023/08/31 00:47:55;;;;;;;2.73;0.80;;;;;;;16.43;100.00;100062.84;5114921;28;20927;-70
2023/08/31 00:50:23;;;;;;;3.50;1.50;;;;;;;16.35;100.00;100065.38;5115152;28;20444;-70
2023/08/31 00:52:50;;;;;;;3.27;1.73;;;;;;;16.37;100.00;100056.81;5114776;28;20443;-70
2023/08/31 00:55:17;;;;;;;4.37;1.80;;;;;;;16.32;100.00;100054.34;5115080;27;20487;-70
2023/08/31 00:57:44;;;;;;;3.57;1.57;;;;;;;16.32;100.00;100055.13;5114717;28;20858;-70
2023/08/31 01:00:13;;;;;;;3.67;1.87;;;;;;;16.35;100.00;100059.91;5114952;28;20518;-70
2023/08/31 01:02:50;;;;;;;3.50;1.57;;;;;;;16.30;100.00;100075.78;5114859;28;20515;-70
2023/08/31 01:05:30;;;;;;;4.30;2.00;;;;;;;16.33;100.00;100075.06;5114816;27;20458;-71
2023/08/31 01:08:02;;;;;;;3.10;1.40;;;;;;;16.27;100.00;100069.06;5114637;28;20769;-70
2023/08/31 01:10:38;;;;;;;3.27;1.70;;;;;;;16.23;100.00;100078.31;5114973;28;20790;-70
2023/08/31 01:13:13;;;;;;;3.90;1.50;;;;;;;16.23;100.00;100079.13;5114796;28;20502;-70
2023/08/31 01:15:44;;;;;;;4.67;2.20;;;;;;;16.26;100.00;100078.44;5114639;28;20467;-70
2023/08/31 01:18:12;;;;;;;3.30;1.70;;;;;;;16.26;100.00;100083.09;5113831;28;20416;-70
2023/08/31 01:20:47;;;;;;;4.27;2.10;;;;;;;16.29;100.00;100079.66;5114061;28;20526;-70
2023/08/31 01:23:19;;;;;;;2.60;1.20;;;;;;;16.20;100.00;100090.75;5113776;28;20828;-70
2023/08/31 01:25:48;;;;;;;3.70;1.37;;;;;;;16.17;100.00;100083.25;5113701;28;20462;-70
2023/08/31 01:28:15;;;;;;;3.43;1.47;;;;;;;16.12;100.00;100091.72;5113671;28;20534;-70
2023/08/31 01:30:42;;;;;;;2.80;1.10;;;;;;;16.06;100.00;100087.63;5113636;28;20428;-70
2023/08/31 01:33:09;;;;;;;2.50;1.07;;;;;;;15.97;100.00;100096.00;5113607;28;20438;-70
2023/08/31 01:35:43;;;;;;;2.97;0.80;;;;;;;15.92;100.00;100095.47;5113185;28;20547;-70
2023/08/31 01:38:12;;;;;;;2.73;0.90;;;;;;;15.88;100.00;100098.88;5113619;28;20453;-70
2023/08/31 01:40:45;;;;;;;2.47;0.90;;;;;;;15.80;100.00;100104.50;5113401;28;20463;-70
2023/08/31 01:43:14;;;;;;;3.60;1.13;;;;;;;15.72;100.00;100106.25;5113115;28;20459;-70
2023/08/31 01:45:42;;;;;;;2.97;0.90;;;;;;;15.72;100.00;100117.19;5113559;28;20546;-70
2023/08/31 01:48:09;;;;;;;2.60;0.80;;;;;;;15.76;100.00;100115.34;5113448;28;20432;-70
2023/08/31 01:50:35;;;;;;;2.67;0.80;;;;;;;15.67;100.00;100106.50;5113094;28;20810;-70
2023/08/31 01:53:02;;;;;;;2.23;0.67;;;;;;;15.53;100.00;100106.03;5113334;28;20951;-69
2023/08/31 01:55:29;;;;;;;2.40;0.80;;;;;;;15.41;100.00;100115.09;5113231;28;20540;-68
2023/08/31 01:57:56;;;;;;;2.20;0.60;;;;;;;15.27;100.00;100112.72;5112935;28;20930;-70
2023/08/31 02:00:24;;;;;;;2.50;0.90;;;;;;;15.19;100.00;100118.31;5113308;28;20482;-69
2023/08/31 02:02:50;;;;;;;2.40;0.80;;;;;;;15.10;100.00;100124.69;5113238;28;21046;-69
2023/08/31 02:05:17;;;;;;;2.20;0.67;;;;;;;14.97;100.00;100123.09;5113135;28;20487;-69
2023/08/31 02:07:44;;;;;;;2.40;0.80;;;;;;;14.93;100.00;100127.63;5112875;28;20446;-69
2023/08/31 02:10:10;;;;;;;2.60;1.07;;;;;;;14.84;100.00;100135.16;5112838;28;20423;-69
2023/08/31 02:12:37;;;;;;;2.50;0.57;;;;;;;14.75;100.00;100132.53;5113108;28;20461;-69
2023/08/31 02:15:05;;;;;;;2.60;1.20;;;;;;;14.76;100.00;100131.38;5112944;28;20447;-69
2023/08/31 02:17:34;;;;;;;2.40;0.93;;;;;;;14.75;100.00;100129.81;5089265;22;1066992;-70
2023/08/31 02:20:02;;;;;;;2.80;0.90;;;;;;;14.73;100.00;100123.88;5096072;28;20300;-70
2023/08/31 02:22:31;;;;;;;2.60;0.70;;;;;;;14.71;100.00;100119.91;5097466;28;20528;-70
2023/08/31 02:24:57;;;;;;;2.30;0.50;;;;;;;14.71;100.00;100119.91;5097495;28;20447;-67
2023/08/31 02:27:24;;;;;;;2.50;0.80;;;;;;;14.66;100.00;100112.75;5097155;28;20855;-67
2023/08/31 02:29:50;;;;;;;2.20;0.70;;;;;;;14.65;100.00;100113.88;5097492;28;20468;-67
2023/08/31 02:32:17;;;;;;;3.80;1.03;;;;;;;14.64;100.00;100118.53;5097072;28;20940;-67
2023/08/31 02:34:45;;;;;;;2.27;0.60;;;;;;;14.69;100.00;100131.13;5097364;28;20491;-67
2023/08/31 02:37:12;;;;;;;2.20;0.60;;;;;;;14.72;100.00;100125.03;5097047;28;20782;-67
2023/08/31 02:39:39;;;;;;;2.40;0.70;;;;;;;14.72;100.00;100127.75;5097260;28;20444;-67
2023/08/31 02:42:07;;;;;;;2.17;0.63;;;;;;;14.66;100.00;100123.66;5097264;28;20436;-67
2023/08/31 02:44:34;;;;;;;2.60;0.80;;;;;;;14.62;100.00;100111.84;5097012;28;20444;-68
2023/08/31 02:47:01;;;;;;;2.20;0.57;;;;;;;14.61;100.00;100121.94;5097133;28;20535;-68
2023/08/31 02:49:27;;;;;;;2.70;0.80;;;;;;;14.57;100.00;100128.44;5096763;28;20529;-67
2023/08/31 02:51:55;;;;;;;2.47;0.70;;;;;;;14.57;100.00;100125.69;5097173;28;20437;-67
2023/08/31 02:54:22;;;;;;;4.20;0.60;;;;;;;14.56;100.00;100138.50;5097163;28;20523;-67
2023/08/31 02:56:48;;;;;;;2.57;0.97;;;;;;;14.53;100.00;100119.34;5096664;28;21014;-67
2023/08/31 02:59:17;;;;;;;2.10;0.50;;;;;;;14.55;100.00;100123.28;5097172;28;20442;-67
2023/08/31 03:01:46;;;;;;;2.10;0.57;;;;;;;14.59;100.00;100128.88;5097014;28;20812;-68
2023/08/31 03:04:12;;;;;;;2.80;1.00;;;;;;;14.64;100.00;100139.53;5096506;28;20576;-67
2023/08/31 03:06:39;;;;;;;3.33;1.40;;;;;;;14.64;100.00;100145.78;5096616;28;20881;-67
2023/08/31 03:09:07;;;;;;;2.30;0.73;;;;;;;14.62;100.00;100139.09;5096825;28;20472;-67
2023/08/31 03:11:34;;;;;;;3.27;0.87;;;;;;;14.64;100.00;100136.81;5096712;28;20447;-68
2023/08/31 03:14:01;;;;;;;2.40;0.83;;;;;;;14.62;100.00;100134.44;5096601;28;20954;-68
2023/08/31 03:16:27;;;;;;;2.97;0.93;;;;;;;14.68;100.00;100142.41;5096434;28;20468;-67
2023/08/31 03:18:54;;;;;;;2.80;0.90;;;;;;;14.66;100.00;100136.50;5096330;28;20964;-67
2023/08/31 03:21:20;;;;;;;7.30;0.90;;;;;;;14.65;100.00;100149.31;5096530;28;20436;-67
2023/08/31 03:23:47;;;;;;;2.40;0.60;;;;;;;14.65;100.00;100143.84;5096339;28;20484;-67
2023/08/31 03:26:15;;;;;;;2.20;0.67;;;;;;;14.63;100.00;100146.13;5096291;28;20499;-67
2023/08/31 03:28:42;;;;;;;2.40;0.77;;;;;;;14.66;100.00;100141.94;5096400;28;20504;-67
2023/08/31 03:31:08;;;;;;;2.80;0.90;;;;;;;14.65;100.00;100146.59;5095988;28;20530;-67
2023/08/31 03:33:35;;;;;;;2.83;0.70;;;;;;;14.62;100.00;100155.47;5095971;28;20775;-67
2023/08/31 03:36:04;;;;;;;2.20;0.60;;;;;;;14.60;100.00;100158.50;5096183;28;20513;-67
2023/08/31 03:38:30;;;;;;;3.80;1.30;;;;;;;14.59;100.00;100156.13;5096192;28;20441;-67
2023/08/31 03:40:58;;;;;;;2.30;0.70;;;;;;;14.57;100.00;100159.19;5096211;28;20472;-67
2023/08/31 03:43:26;;;;;;;2.10;0.57;;;;;;;14.57;100.00;100163.84;5095923;28;20541;-67
2023/08/31 03:45:56;;;;;;;2.20;0.60;;;;;;;14.51;100.00;100159.75;5095722;28;20460;-67
2023/08/31 03:48:23;;;;;;;2.33;0.70;;;;;;;14.50;100.00;100166.34;5095624;28;21004;-67
2023/08/31 03:50:50;;;;;;;2.77;0.90;;;;;;;14.45;100.00;100155.63;5095866;28;20507;-67
2023/08/31 03:53:17;;;;;;;3.87;1.30;;;;;;;14.45;100.00;100161.06;5095824;28;20439;-67
2023/08/31 03:55:44;;;;;;;2.23;0.73;;;;;;;14.36;100.00;100169.34;5095841;28;20539;-67
2023/08/31 03:58:11;;;;;;;2.73;0.63;;;;;;;14.38;100.00;100177.97;5095887;28;20467;-69
2023/08/31 04:00:39;;;;;;;2.47;0.80;;;;;;;14.39;100.00;100166.75;5095764;28;20448;-67
2023/08/31 04:03:06;;;;;;;2.40;0.80;;;;;;;14.36;100.00;100170.13;5095406;28;20911;-67
2023/08/31 04:05:34;;;;;;;2.33;0.67;;;;;;;14.34;100.00;100175.13;5095636;28;20548;-67
2023/08/31 04:08:01;;;;;;;2.50;0.90;;;;;;;14.37;100.00;100176.38;5095636;28;20472;-67
2023/08/31 04:10:29;;;;;;;2.60;0.90;;;;;;;14.36;100.00;100174.78;5095184;28;20436;-67
2023/08/31 04:12:56;;;;;;;2.83;0.87;;;;;;;14.31;100.00;100177.72;5095178;28;20445;-67
2023/08/31 04:15:22;;;;;;;3.17;1.10;;;;;;;14.28;100.00;100176.47;5095520;28;20445;-67
2023/08/31 04:17:50;;;;;;;2.50;0.87;;;;;;;14.29;100.00;100178.03;5095034;28;20452;-67
2023/08/31 04:20:17;;;;;;;2.37;0.80;;;;;;;14.27;100.00;100171.34;5095304;28;20527;-66
2023/08/31 04:22:44;;;;;;;2.47;0.83;;;;;;;14.29;100.00;100183.50;5095092;28;20480;-66
2023/08/31 04:25:10;;;;;;;2.30;0.70;;;;;;;14.27;100.00;100180.31;5095453;28;20452;-66
2023/08/31 04:27:39;;;;;;;3.03;1.10;;;;;;;14.29;100.00;100188.16;5095440;28;20441;-66
2023/08/31 04:30:07;;;;;;;2.50;0.70;;;;;;;14.28;100.00;100190.06;5095181;28;20940;-67
2023/08/31 04:32:35;;;;;;;2.80;0.80;;;;;;;14.29;100.00;100188.94;5095297;28;20447;-67
2023/08/31 04:35:03;;;;;;;3.40;1.40;;;;;;;14.29;100.00;100178.03;5095181;28;20440;-67
2023/08/31 04:37:30;;;;;;;6.27;1.40;;;;;;;14.27;100.00;100185.78;5095235;28;20443;-67
2023/08/31 04:39:57;;;;;;;2.97;1.10;;;;;;;14.31;100.00;100191.34;5095165;28;20438;-66
2023/08/31 04:42:24;;;;;;;4.33;1.33;;;;;;;14.26;100.00;100184.19;5094399;28;20444;-66
2023/08/31 04:44:51;;;;;;;2.97;1.23;;;;;;;14.22;100.00;100191.44;5094827;28;20482;-67
2023/08/31 04:47:17;;;;;;;3.20;1.13;;;;;;;14.23;100.00;100203.13;5094584;28;20444;-67
2023/08/31 04:49:44;;;;;;;3.00;1.43;;;;;;;14.27;100.00;100204.84;5094995;28;20436;-67
2023/08/31 04:52:12;;;;;;;2.67;1.00;;;;;;;14.29;100.00;100188.16;5094774;28;20472;-67
2023/08/31 04:54:39;;;;;;;3.40;1.10;;;;;;;14.34;100.00;100199.66;5094474;28;20800;-67
2023/08/31 04:57:07;;;;;;;3.73;2.00;;;;;;;14.36;100.00;100208.28;5094472;28;20470;-67
2023/08/31 04:59:33;;;;;;;3.03;0.90;;;;;;;14.36;100.00;100197.38;5094440;28;20955;-67
2023/08/31 05:02:00;;;;;;;2.57;0.87;;;;;;;14.38;100.00;100200.56;5094215;28;20527;-67
2023/08/31 05:04:28;;;;;;;2.47;0.77;;;;;;;14.42;100.00;100203.41;5094198;28;20484;-67
2023/08/31 05:06:55;;;;;;;3.27;1.23;;;;;;;14.44;100.00;100201.16;5094374;28;20461;-67
2023/08/31 05:09:25;;;;;;;3.90;0.90;;;;;;;14.47;100.00;100205.13;5094600;28;20806;-68
2023/08/31 05:11:51;;;;;;;2.27;0.73;;;;;;;14.51;100.00;100214.25;5094894;28;20512;-68
2023/08/31 05:14:18;;;;;;;4.27;1.23;;;;;;;14.56;100.00;100219.47;5094451;28;20524;-67
2023/08/31 05:16:44;;;;;;;3.40;1.43;;;;;;;14.58;100.00;100214.50;5093809;28;20515;-67
2023/08/31 05:19:11;;;;;;;3.60;1.70;;;;;;;14.62;100.00;100205.31;5094193;28;20436;-67
2023/08/31 05:21:38;;;;;;;2.60;1.00;;;;;;;14.61;100.00;100213.84;5094263;28;20524;-67
2023/08/31 05:24:05;;;;;;;3.30;1.37;;;;;;;14.63;100.00;100215.06;5094397;28;20489;-67
2023/08/31 05:26:34;;;;;;;3.70;1.50;;;;;;;14.64;100.00;100208.50;5093889;28;21016;-67
2023/08/31 05:29:00;;;;;;;2.77;0.97;;;;;;;14.70;100.00;100222.72;5094403;28;20436;-67
2023/08/31 05:31:27;;;;;;;4.23;1.40;;;;;;;14.70;100.00;100220.00;5094204;28;20543;-68
2023/08/31 05:33:53;;;;;;;3.60;1.37;;;;;;;14.73;100.00;100224.75;5093935;28;20472;-68
2023/08/31 05:36:20;;;;;;;2.57;0.97;;;;;;;14.71;100.00;100229.75;5093719;28;20513;-67
2023/08/31 05:38:46;;;;;;;2.20;0.67;;;;;;;14.76;100.00;100232.25;5094019;28;20434;-66
2023/08/31 05:41:13;;;;;;;3.87;1.57;;;;;;;14.77;100.00;100233.06;5094165;28;20447;-68
2023/08/31 05:43:41;;;;;;;2.40;0.93;;;;;;;14.74;100.00;100240.00;5093951;28;20484;-66
2023/08/31 05:46:08;;;;;;;3.13;1.17;;;;;;;14.80;100.00;100244.09;5094213;28;21065;-68
2023/08/31 05:48:36;;;;;;;3.50;1.23;;;;;;;14.82;100.00;100250.00;5094285;28;20447;-66
2023/08/31 05:51:03;;;;;;;2.70;1.00;;;;;;;14.84;100.00;100258.66;5093882;28;20436;-67
2023/08/31 05:53:30;;;;;;;3.00;1.37;;;;;;;14.86;100.00;100255.56;5093794;28;20531;-65
2023/08/31 05:56:03;;;;;;;2.70;1.03;;;;;;;14.83;100.00;100258.97;5093817;28;20488;-65
2023/08/31 05:58:30;;;;;;;4.37;1.80;;;;;;;14.82;100.00;100246.47;5093785;28;20451;-65
2023/08/31 06:00:59;;;;;;;3.87;1.30;;;;;;;14.82;100.00;100241.81;5093532;28;20464;-65
2023/08/31 06:03:26;;;;;;;3.80;1.33;;;;;;;14.87;100.00;100255.25;5093850;28;20487;-65
2023/08/31 06:05:52;;;;;;;5.83;1.77;;;;;;;14.88;100.00;100256.03;5093630;28;20505;-64
2023/08/31 06:08:19;;;;;;;4.93;1.43;;;;;;;14.89;100.00;100265.81;5093533;28;20446;-65
2023/08/31 06:10:45;;;;;;;4.00;1.20;;;;;;;14.96;100.00;100267.97;5093301;28;20548;-65
2023/08/31 06:13:12;;;;;;;2.57;0.90;;;;;;;15.03;100.00;100266.28;5093283;28;20941;-65
2023/08/31 06:15:39;;;;;;;3.67;1.40;;;;;;;15.11;100.00;100270.06;5093490;28;20492;-65
2023/08/31 06:18:08;;;;;;;3.67;1.30;;;;;;;15.19;100.00;100271.09;5093178;28;20448;-65
2023/08/31 06:20:34;;;;;;;3.20;1.60;;;;;;;15.27;100.00;100273.72;5093566;28;20441;-64
2023/08/31 06:23:01;;;;;;;3.30;1.40;;;;;;;15.32;100.00;100278.94;5093440;28;20475;-65
2023/08/31 06:25:27;;;;;;;4.20;1.70;;;;;;;15.36;100.00;100279.03;5093298;28;20480;-65
2023/08/31 06:27:54;;;;;;;4.27;1.83;;;;;;;15.42;100.00;100279.63;5093477;28;20524;-65
2023/08/31 06:30:21;;;;;;;3.43;1.50;;;;;;;15.34;100.00;100276.66;5093414;28;20524;-65
2023/08/31 06:32:49;;;;;;;3.37;1.30;;;;;;;15.30;100.00;100274.97;5093368;28;20527;-64
2023/08/31 06:35:19;;;;;;;3.87;1.70;;;;;;;15.30;100.00;100281.22;5093251;28;20869;-64
2023/08/31 06:37:46;;;;;;;3.90;1.90;;;;;;;15.33;100.00;100293.38;5092984;28;20928;-65
2023/08/31 06:40:13;;;;;;;3.63;1.67;;;;;;;15.36;100.00;100293.50;5093259;28;20469;-67
2023/08/31 06:42:40;;;;;;;3.30;1.57;;;;;;;15.35;100.00;100291.91;5093296;28;20467;-67
2023/08/31 06:45:08;;;;;;;4.93;1.80;;;;;;;15.35;100.00;100289.16;5092879;28;20523;-67
2023/08/31 06:47:35;;;;;;;6.90;2.60;;;;;;;15.40;100.00;100296.34;5093240;28;20520;-67
2023/08/31 06:50:02;;;;;;;2.73;1.13;;;;;;;15.42;100.00;100301.47;5093297;28;20468;-67
2023/08/31 06:52:30;;;;;;;3.07;1.60;;;;;;;15.48;100.00;100305.56;5093231;28;20494;-67
2023/08/31 06:54:58;;;;;;;3.67;1.60;;;;;;;15.45;100.00;100307.06;5093195;28;20932;-67
2023/08/31 06:57:25;;;;;;;3.87;1.80;;;;;;;15.36;100.00;100311.78;5093078;28;20436;-67
2023/08/31 06:59:51;;;;;;;4.47;1.73;;;;;;;15.38;100.00;100306.81;5092800;28;20946;-67
2023/08/31 07:02:18;;;;;;;4.90;2.20;;;;;;;15.36;100.00;100312.63;5092763;28;20960;-67
2023/08/31 07:04:45;;;;;;;3.00;0.97;;;;;;;15.38;100.00;100307.59;5093275;28;20831;-67
2023/08/31 07:07:13;;;;;;;3.37;1.53;;;;;;;15.37;100.00;100311.47;5096423;28;21027;-67
2023/08/31 07:09:43;;;;;;;3.37;1.50;;;;;;;15.40;100.00;100315.44;5096770;28;20468;-67
2023/08/31 07:12:09;;;;;;;3.60;1.73;;;;;;;15.37;100.00;100308.75;5096715;28;20442;-67
2023/08/31 07:14:36;;;;;;;4.70;2.70;;;;;;;15.42;100.00;100312.38;5096707;28;20483;-67
2023/08/31 07:17:03;;;;;;;4.77;2.20;;;;;;;15.42;100.00;100318.63;5096120;28;20496;-67
2023/08/31 07:19:29;;;;;;;3.80;1.63;;;;;;;15.44;100.00;100318.28;5096570;28;20527;-67
2023/08/31 07:21:56;;;;;;;4.10;1.67;;;;;;;15.45;100.00;100323.44;5096592;28;20479;-66
2023/08/31 07:24:24;;;;;;;3.40;1.43;;;;;;;15.46;100.00;100316.81;5096028;28;20567;-66
2023/08/31 07:26:51;;;;;;;2.97;1.17;;;;;;;15.42;100.00;100326.03;5096192;28;21046;-66
2023/08/31 07:29:18;;;;;;;3.13;1.53;;;;;;;15.37;100.00;100333.31;5096310;28;20463;-66
2023/08/31 07:31:45;;;;;;;2.93;1.23;;;;;;;15.39;100.00;100336.47;5096312;28;20451;-66
2023/08/31 07:34:11;;;;;;;3.03;1.33;;;;;;;15.32;100.00;100330.81;5096284;28;20511;-66
2023/08/31 07:36:37;;;;;;;3.03;1.50;;;;;;;15.24;100.00;100342.63;5096243;28;20459;-65
2023/08/31 07:39:04;;;;;;;3.40;1.37;;;;;;;15.11;100.00;100339.06;5096161;28;20446;-66
2023/08/31 07:41:31;;;;;;;3.07;1.33;;;;;;;15.08;100.00;100342.44;5096215;28;20210;-66
2023/08/31 07:43:59;;;;;;;3.67;1.40;;;;;;;15.08;100.00;100349.84;5095749;28;20542;-66
2023/08/31 07:46:25;;;;;;;3.30;1.60;;;;;;;15.06;100.00;100352.13;5096046;28;20826;-66
2023/08/31 07:48:52;;;;;;;3.00;1.13;;;;;;;15.14;100.00;100351.25;5096111;28;20436;-66
2023/08/31 07:51:22;;;;;;;3.13;1.40;;;;;;;15.17;100.00;100350.53;5096033;28;20928;-66
2023/08/31 07:53:49;;;;;;;3.17;1.30;;;;;;;15.25;100.00;100360.56;5096042;28;20417;-66
2023/08/31 07:56:16;;;;;;;3.80;1.37;;;;;;;15.29;100.00;100352.50;5095874;28;20543;-65
2023/08/31 07:58:42;;;;;;;3.47;1.60;;;;;;;15.31;100.00;100361.94;5095750;28;20435;-65
2023/08/31 08:01:10;;;;;;;3.13;1.57;;;;;;;15.37;100.00;100366.06;5095432;28;20844;-65
2023/08/31 08:03:37;;;;;;;3.73;1.57;;;;;;;15.43;100.00;100371.28;5095750;28;20464;-65
2023/08/31 08:06:04;;;;;;;2.40;0.90;;;;;;;15.56;100.00;100370.97;5095656;28;20463;-65
2023/08/31 08:08:31;;;;;;;3.70;1.70;;;;;;;15.64;100.00;100378.28;5095576;28;20444;-65
2023/08/31 08:10:57;;;;;;;3.63;1.40;;;;;;;15.69;100.00;100382.72;5095960;28;20440;-66
2023/08/31 08:13:24;;;;;;;3.17;1.70;;;;;;;15.68;98.55;100381.16;5095790;28;20444;-66
2023/08/31 08:15:51;;;;;;;5.13;1.20;;;;;;;15.68;99.67;100370.22;5095246;28;20452;-66
2023/08/31 08:18:19;;;;;;;2.40;0.90;;;;;;;15.73;100.00;100388.31;5093998;28;20444;-66
2023/08/31 08:20:48;;;;;;;2.70;0.90;;;;;;;15.71;99.99;100387.84;5095408;28;20471;-68
2023/08/31 08:23:15;;;;;;;2.60;0.90;;;;;;;15.72;96.92;100387.53;5095465;28;20451;-68
2023/08/31 08:25:41;;;;;;;2.93;0.90;;;;;;;15.80;94.58;100388.53;5094912;28;20516;-68
2023/08/31 08:28:08;;;;;;;2.30;0.70;;;;;;;15.86;95.56;100389.91;5095508;28;20437;-69
2023/08/31 08:30:34;;;;;;;3.27;0.97;;;;;;;16.09;95.51;100384.78;5094983;28;20883;-68
2023/08/31 08:33:01;;;;;;;5.37;1.30;;;;;;;16.28;94.79;100382.25;5095199;28;20452;-68
2023/08/31 08:35:29;;;;;;;4.37;1.13;;;;;;;16.55;94.59;100374.44;5095476;28;20535;-69
2023/08/31 08:37:56;;;;;;;2.50;0.90;;;;;;;16.78;92.46;100386.50;5095211;28;20523;-67
2023/08/31 08:40:22;;;;;;;2.13;0.57;;;;;;;16.96;92.63;100381.50;5095168;28;20436;-67
2023/08/31 08:42:53;;;;;;;2.30;0.70;;;;;;;17.05;88.87;100384.09;5095062;28;20436;-66
2023/08/31 08:45:21;;;;;;;2.10;0.70;;;;;;;17.13;89.47;100392.16;5094863;28;20516;-67
2023/08/31 08:47:49;;;;;;;2.50;0.60;;;;;;;17.24;86.91;100389.69;5094809;28;20854;-67
2023/08/31 08:50:16;;;;;;;2.53;1.03;;;;;;;17.26;85.57;100386.59;5094471;28;20936;-69
2023/08/31 08:52:46;;;;;;;2.57;0.80;;;;;;;17.32;89.62;100380.53;5094868;28;20471;-67
2023/08/31 08:55:14;;;;;;;2.40;0.80;;;;;;;17.39;85.08;100388.91;5094629;28;20488;-67
2023/08/31 08:57:41;;;;;;;3.20;0.90;;;;;;;17.30;84.50;100382.81;5094758;28;20440;-67
2023/08/31 09:00:08;;;;;;;2.60;0.90;;;;;;;17.30;85.20;100380.06;5094637;28;20444;-67
2023/08/31 09:02:35;;;;;;;2.10;0.73;;;;;;;17.34;85.49;100386.44;5094607;28;20440;-67
2023/08/31 09:05:02;;;;;;;2.10;0.77;;;;;;;17.32;82.68;100394.22;5094492;28;20476;-66
2023/08/31 09:07:31;;;;;;;2.40;0.90;;;;;;;17.26;84.48;100390.13;5094831;28;20443;-66
2023/08/31 09:10:00;;;;;;;2.50;0.80;;;;;;;17.27;85.73;100388.22;5094147;28;20916;-66
2023/08/31 09:12:26;;;;;;;2.40;0.73;;;;;;;17.31;84.25;100387.16;5094527;28;20519;-67
2023/08/31 09:15:00;;;;;;;2.50;0.63;;;;;;;17.39;84.72;100396.31;5094284;28;20493;-67
2023/08/31 09:17:38;;;;;;;3.70;0.67;;;;;;;17.47;84.27;100398.09;5094071;28;20444;-67
2023/08/31 09:20:05;;;;;;;2.23;0.70;;;;;;;17.54;84.18;100398.31;5094383;28;20508;-67
2023/08/31 09:22:34;;;;;;;2.37;0.97;;;;;;;17.65;85.17;100398.56;5093920;28;20985;-67
2023/08/31 09:25:02;;;;;;;2.10;0.60;;;;;;;17.82;84.38;100400.97;5093783;28;20995;-67
2023/08/31 09:27:30;;;;;;;3.03;0.67;;;;;;;17.94;77.57;100407.53;5093958;28;20444;-66
2023/08/31 09:29:57;;;;;;;2.50;0.87;;;;;;;17.88;78.92;100402.31;5093694;28;20814;-66
2023/08/31 09:32:24;;;;;;;2.33;0.70;;;;;;;17.81;75.08;100404.06;5094225;28;20489;-66
2023/08/31 09:34:51;;;;;;;2.27;0.60;;;;;;;17.69;74.69;100399.44;5094059;28;20464;-67
2023/08/31 09:37:17;;;;;;;2.37;0.80;;;;;;;17.55;74.97;100407.31;5093815;28;20497;-69
2023/08/31 09:39:45;;;;;;;2.20;0.70;;;;;;;17.49;74.33;100395.03;5093952;28;20451;-67
2023/08/31 09:42:13;;;;;;;2.13;0.70;;;;;;;17.45;77.44;100388.66;5094385;28;20432;-67
2023/08/31 09:44:44;;;;;;;2.00;0.50;;;;;;;17.49;74.17;100397.78;5093767;28;21004;-67
2023/08/31 09:47:12;;;;;;;2.50;0.80;;;;;;;17.56;75.75;100381.50;5093636;28;20491;-67
2023/08/31 09:49:42;;;;;;;2.00;0.60;;;;;;;17.71;75.73;100377.16;5093881;28;20515;-67
2023/08/31 09:52:10;;;;;;;2.10;0.60;;;;;;;17.92;74.76;100377.72;5094089;28;20531;-67
2023/08/31 09:54:38;;;;;;;2.30;0.60;;;;;;;18.13;70.33;100382.91;5093795;28;20428;-67
2023/08/31 09:57:06;;;;;;;2.90;0.80;;;;;;;18.17;68.83;100375.56;5093566;28;20548;-67
2023/08/31 09:59:35;;;;;;;1.90;0.60;;;;;;;18.09;70.76;100377.34;5093662;28;20472;-67
2023/08/31 10:02:02;;;;;;;3.00;0.80;;;;;;;18.04;71.51;100385.03;5093311;28;20444;-70
2023/08/31 10:04:32;;;;;;;2.20;0.73;;;;;;;18.08;68.97;100386.72;5093644;28;20499;-68
2023/08/31 10:06:59;;;;;;;2.00;0.50;;;;;;;18.05;69.04;100383.88;5093843;28;20478;-70
2023/08/31 10:09:26;;;;;;;2.97;0.57;;;;;;;18.03;72.13;100383.47;5093977;28;20501;-71
2023/08/31 10:11:53;;;;;;;2.03;0.50;;;;;;;17.95;72.79;100382.50;5093957;28;20511;-70
2023/08/31 10:14:21;;;;;;;2.07;0.47;;;;;;;17.86;69.02;100396.38;5093617;28;20516;-70
2023/08/31 10:16:52;;;;;;;1.97;0.50;;;;;;;17.70;71.54;100402.97;5093410;28;20468;-70
2023/08/31 10:19:19;;;;;;;2.00;0.53;;;;;;;17.56;71.40;100403.41;5093600;28;20491;-67
2023/08/31 10:21:45;;;;;;;2.10;0.60;;;;;;;17.45;74.04;100411.38;5093653;28;20447;-67
2023/08/31 10:24:12;;;;;;;2.00;0.50;;;;;;;17.18;84.99;100418.47;5093254;28;20480;-67
2023/08/31 10:26:39;;;;;;;2.03;0.57;;;;;;;16.82;87.93;100409.28;5093499;28;20488;-67
2023/08/31 10:29:06;;;;;;;2.17;0.60;;;;;;;16.59;91.80;100408.16;5093633;28;20523;-67
2023/08/31 10:31:34;;;;;;;2.00;0.50;;;;;;;16.58;93.46;100395.63;5093403;28;20501;-69
2023/08/31 10:34:04;;;;;;;2.20;0.70;;;;;;;16.67;95.06;100401.75;5093373;28;20447;-70
2023/08/31 10:36:38;;;;;;;3.07;0.80;;;;;;;16.80;92.54;100410.75;5093318;28;20452;-67
2023/08/31 10:39:13;;;;;;;2.20;0.63;;;;;;;16.86;94.50;100412.09;5093621;28;20478;-67
2023/08/31 10:41:40;;;;;;;2.37;0.87;;;;;;;16.92;95.64;100409.91;5096355;28;20892;-67
2023/08/31 10:44:20;;;;;;;2.30;0.70;;;;;;;16.91;94.38;100411.88;5097441;28;20527;-67
2023/08/31 10:46:47;;;;;;;2.30;0.80;;;;;;;16.84;94.01;100420.66;5096685;28;20995;-67
2023/08/31 10:49:17;;;;;;;2.17;0.70;;;;;;;16.74;93.96;100425.81;5096863;28;21023;-67
2023/08/31 10:51:45;;;;;;;2.10;0.50;;;;;;;16.63;96.07;100409.84;5097235;28;20551;-67
2023/08/31 10:54:14;;;;;;;2.27;0.70;;;;;;;16.52;96.33;100414.22;5097101;28;20519;-67
2023/08/31 10:57:05;;;;;;;2.20;0.60;;;;;;;16.48;97.64;100412.53;5096944;28;20456;-67
2023/08/31 10:59:50;;;;;;;2.20;0.60;;;;;;;16.52;96.42;100410.69;5089594;28;20974;-67
2023/08/31 11:02:38;;;;;;;2.23;0.57;;;;;;;16.47;93.50;100411.72;5097010;28;20540;-67
2023/08/31 11:05:10;;;;;;;2.17;0.63;;;;;;;16.39;91.59;100405.25;5091800;28;20515;-67
2023/08/31 11:07:38;;;;;;;2.00;0.50;;;;;;;16.34;91.20;100402.75;5096952;28;20421;-67
2023/08/31 11:10:13;;;;;;;1.90;0.50;;;;;;;16.36;89.77;100394.19;5096864;28;20472;-66
2023/08/31 11:12:40;;;;;;;2.27;0.70;;;;;;;16.47;91.82;100391.78;5096552;28;20507;-66
2023/08/31 11:15:08;;;;;;;2.30;0.50;;;;;;;16.57;92.09;100388.56;5096199;28;20468;-68
2023/08/31 11:17:35;;;;;;;3.43;0.70;;;;;;;16.63;90.39;100398.13;5096495;28;20542;-68
2023/08/31 11:20:05;;;;;;;2.37;0.70;;;;;;;16.53;90.93;100393.94;5096168;28;20834;-69
2023/08/31 11:22:33;;;;;;;2.03;0.50;;;;;;;16.56;91.23;100382.31;5096014;28;20445;-67